sensor_id;sensor_type;location;lat;lon;timestamp;P1;durP1;ratioP1;P2;durP2;ratioP2
32228;SDS011;18717;48.034;11.186;2023-04-25T00:01:09;9.38;;;8.68;;
32228;SDS011;18717;48.034;11.186;2023-04-25T00:03:39;9.32;;;8.65;;
32228;SDS011;18717;48.034;11.186;2023-04-25T00:06:07;9.48;;;8.70;;
32228;SDS011;18717;48.034;11.186;2023-04-25T00:08:35;9.18;;;8.68;;
32228;SDS011;18717;48.034;11.186;2023-04-25T00:11:03;9.30;;;8.60;;
32228;SDS011;18717;48.034;11.186;2023-04-25T00:13:31;8.70;;;8.05;;
32228;SDS011;18717;48.034;11.186;2023-04-25T00:15:59;8.95;;;8.25;;
32228;SDS011;18717;48.034;11.186;2023-04-25T00:18:30;9.25;;;8.68;;
32228;SDS011;18717;48.034;11.186;2023-04-25T00:20:59;8.73;;;8.00;;
32228;SDS011;18717;48.034;11.186;2023-04-25T00:23:27;8.70;;;8.20;;
32228;SDS011;18717;48.034;11.186;2023-04-25T00:25:54;9.23;;;8.73;;
32228;SDS011;18717;48.034;11.186;2023-04-25T00:28:22;8.48;;;7.97;;
32228;SDS011;18717;48.034;11.186;2023-04-25T00:30:50;8.50;;;8.07;;
32228;SDS011;18717;48.034;11.186;2023-04-25T00:33:17;9.32;;;8.40;;
32228;SDS011;18717;48.034;11.186;2023-04-25T00:35:46;8.32;;;7.90;;
32228;SDS011;18717;48.034;11.186;2023-04-25T00:38:14;9.57;;;8.77;;
32228;SDS011;18717;48.034;11.186;2023-04-25T00:40:42;8.50;;;7.90;;
32228;SDS011;18717;48.034;11.186;2023-04-25T00:43:10;9.80;;;8.95;;
32228;SDS011;18717;48.034;11.186;2023-04-25T00:45:38;9.65;;;8.95;;
32228;SDS011;18717;48.034;11.186;2023-04-25T00:48:06;9.82;;;9.05;;
32228;SDS011;18717;48.034;11.186;2023-04-25T00:50:34;9.05;;;8.55;;
32228;SDS011;18717;48.034;11.186;2023-04-25T00:53:04;9.27;;;8.52;;
32228;SDS011;18717;48.034;11.186;2023-04-25T00:55:32;9.45;;;8.55;;
32228;SDS011;18717;48.034;11.186;2023-04-25T00:58:00;9.50;;;8.63;;
32228;SDS011;18717;48.034;11.186;2023-04-25T01:00:28;9.57;;;8.68;;
32228;SDS011;18717;48.034;11.186;2023-04-25T01:02:56;9.73;;;8.95;;
32228;SDS011;18717;48.034;11.186;2023-04-25T01:05:24;9.18;;;8.45;;
32228;SDS011;18717;48.034;11.186;2023-04-25T01:07:52;8.48;;;7.93;;
32228;SDS011;18717;48.034;11.186;2023-04-25T01:10:21;9.73;;;9.02;;
32228;SDS011;18717;48.034;11.186;2023-04-25T01:12:49;9.25;;;8.55;;
32228;SDS011;18717;48.034;11.186;2023-04-25T01:15:17;12.75;;;8.35;;
32228;SDS011;18717;48.034;11.186;2023-04-25T01:17:45;9.52;;;8.60;;
32228;SDS011;18717;48.034;11.186;2023-04-25T01:20:12;11.68;;;10.57;;
32228;SDS011;18717;48.034;11.186;2023-04-25T01:22:42;10.77;;;9.80;;
32228;SDS011;18717;48.034;11.186;2023-04-25T01:25:10;23.38;;;10.88;;
32228;SDS011;18717;48.034;11.186;2023-04-25T01:27:38;12.65;;;10.75;;
32228;SDS011;18717;48.034;11.186;2023-04-25T01:30:07;11.40;;;9.93;;
32228;SDS011;18717;48.034;11.186;2023-04-25T01:32:35;11.20;;;10.15;;
32228;SDS011;18717;48.034;11.186;2023-04-25T01:35:05;11.52;;;9.82;;
32228;SDS011;18717;48.034;11.186;2023-04-25T01:37:47;10.38;;;9.57;;
32228;SDS011;18717;48.034;11.186;2023-04-25T01:40:15;10.52;;;9.63;;
32228;SDS011;18717;48.034;11.186;2023-04-25T01:42:43;9.35;;;8.75;;
32228;SDS011;18717;48.034;11.186;2023-04-25T01:45:12;9.02;;;8.15;;
32228;SDS011;18717;48.034;11.186;2023-04-25T01:47:40;9.63;;;8.95;;
32228;SDS011;18717;48.034;11.186;2023-04-25T01:50:10;10.25;;;8.40;;
32228;SDS011;18717;48.034;11.186;2023-04-25T01:52:38;9.60;;;8.77;;
32228;SDS011;18717;48.034;11.186;2023-04-25T01:55:08;9.60;;;8.70;;
32228;SDS011;18717;48.034;11.186;2023-04-25T01:57:36;9.07;;;8.57;;
32228;SDS011;18717;48.034;11.186;2023-04-25T02:00:04;9.18;;;8.50;;
32228;SDS011;18717;48.034;11.186;2023-04-25T02:02:34;8.85;;;8.20;;
32228;SDS011;18717;48.034;11.186;2023-04-25T02:05:02;9.80;;;8.85;;
32228;SDS011;18717;48.034;11.186;2023-04-25T02:07:31;8.52;;;8.02;;
32228;SDS011;18717;48.034;11.186;2023-04-25T02:09:59;8.40;;;7.90;;
32228;SDS011;18717;48.034;11.186;2023-04-25T02:12:28;9.65;;;9.05;;
32228;SDS011;18717;48.034;11.186;2023-04-25T02:14:57;9.40;;;8.50;;
32228;SDS011;18717;48.034;11.186;2023-04-25T02:17:24;9.50;;;8.60;;
32228;SDS011;18717;48.034;11.186;2023-04-25T02:19:52;9.90;;;8.98;;
32228;SDS011;18717;48.034;11.186;2023-04-25T02:22:20;9.25;;;8.55;;
32228;SDS011;18717;48.034;11.186;2023-04-25T02:24:48;8.93;;;8.32;;
32228;SDS011;18717;48.034;11.186;2023-04-25T02:27:16;9.70;;;8.77;;
32228;SDS011;18717;48.034;11.186;2023-04-25T02:29:45;10.45;;;9.13;;
32228;SDS011;18717;48.034;11.186;2023-04-25T02:32:12;9.60;;;8.68;;
32228;SDS011;18717;48.034;11.186;2023-04-25T02:34:40;9.80;;;8.48;;
32228;SDS011;18717;48.034;11.186;2023-04-25T02:37:08;9.35;;;8.60;;
32228;SDS011;18717;48.034;11.186;2023-04-25T02:39:36;9.10;;;8.55;;
32228;SDS011;18717;48.034;11.186;2023-04-25T02:42:03;8.85;;;8.35;;
32228;SDS011;18717;48.034;11.186;2023-04-25T02:44:31;9.25;;;8.48;;
32228;SDS011;18717;48.034;11.186;2023-04-25T02:47:00;13.98;;;9.45;;
32228;SDS011;18717;48.034;11.186;2023-04-25T02:49:28;9.95;;;9.15;;
32228;SDS011;18717;48.034;11.186;2023-04-25T02:51:56;9.68;;;9.07;;
32228;SDS011;18717;48.034;11.186;2023-04-25T02:54:24;9.25;;;8.65;;
32228;SDS011;18717;48.034;11.186;2023-04-25T02:56:52;9.70;;;8.63;;
32228;SDS011;18717;48.034;11.186;2023-04-25T02:59:19;8.43;;;7.85;;
32228;SDS011;18717;48.034;11.186;2023-04-25T03:01:47;8.95;;;8.45;;
32228;SDS011;18717;48.034;11.186;2023-04-25T03:04:17;9.75;;;8.95;;
32228;SDS011;18717;48.034;11.186;2023-04-25T03:06:45;8.95;;;8.18;;
32228;SDS011;18717;48.034;11.186;2023-04-25T03:09:13;8.73;;;7.90;;
32228;SDS011;18717;48.034;11.186;2023-04-25T03:11:41;9.32;;;8.48;;
32228;SDS011;18717;48.034;11.186;2023-04-25T03:14:09;9.55;;;8.77;;
32228;SDS011;18717;48.034;11.186;2023-04-25T03:16:37;8.48;;;7.97;;
32228;SDS011;18717;48.034;11.186;2023-04-25T03:19:05;8.43;;;7.88;;
32228;SDS011;18717;48.034;11.186;2023-04-25T03:21:35;8.43;;;7.72;;
32228;SDS011;18717;48.034;11.186;2023-04-25T03:24:03;8.65;;;8.15;;
32228;SDS011;18717;48.034;11.186;2023-04-25T03:26:32;8.57;;;8.00;;
32228;SDS011;18717;48.034;11.186;2023-04-25T03:28:59;8.65;;;7.80;;
32228;SDS011;18717;48.034;11.186;2023-04-25T03:31:27;8.60;;;7.90;;
32228;SDS011;18717;48.034;11.186;2023-04-25T03:33:55;8.98;;;8.23;;
32228;SDS011;18717;48.034;11.186;2023-04-25T03:36:23;8.73;;;8.23;;
32228;SDS011;18717;48.034;11.186;2023-04-25T03:38:52;8.43;;;7.88;;
32228;SDS011;18717;48.034;11.186;2023-04-25T03:41:20;8.57;;;7.97;;
32228;SDS011;18717;48.034;11.186;2023-04-25T03:43:47;8.90;;;8.38;;
32228;SDS011;18717;48.034;11.186;2023-04-25T03:46:16;8.48;;;7.90;;
32228;SDS011;18717;48.034;11.186;2023-04-25T03:48:43;9.00;;;8.40;;
32228;SDS011;18717;48.034;11.186;2023-04-25T03:51:11;9.30;;;8.55;;
32228;SDS011;18717;48.034;11.186;2023-04-25T03:53:39;8.52;;;7.93;;
32228;SDS011;18717;48.034;11.186;2023-04-25T03:56:08;9.20;;;8.45;;
32228;SDS011;18717;48.034;11.186;2023-04-25T03:58:36;8.73;;;7.80;;
32228;SDS011;18717;48.034;11.186;2023-04-25T04:01:04;8.32;;;7.82;;
32228;SDS011;18717;48.034;11.186;2023-04-25T04:03:34;9.02;;;8.43;;
32228;SDS011;18717;48.034;11.186;2023-04-25T04:06:03;8.93;;;8.32;;
32228;SDS011;18717;48.034;11.186;2023-04-25T04:08:31;9.00;;;8.40;;
32228;SDS011;18717;48.034;11.186;2023-04-25T04:10:59;9.90;;;8.93;;
32228;SDS011;18717;48.034;11.186;2023-04-25T04:13:28;10.13;;;9.23;;
32228;SDS011;18717;48.034;11.186;2023-04-25T04:15:57;9.50;;;8.75;;
32228;SDS011;18717;48.034;11.186;2023-04-25T04:18:24;8.27;;;7.78;;
32228;SDS011;18717;48.034;11.186;2023-04-25T04:20:52;10.35;;;8.40;;
32228;SDS011;18717;48.034;11.186;2023-04-25T04:23:20;9.35;;;8.40;;
32228;SDS011;18717;48.034;11.186;2023-04-25T04:25:49;9.98;;;9.07;;
32228;SDS011;18717;48.034;11.186;2023-04-25T04:28:16;9.02;;;8.30;;
32228;SDS011;18717;48.034;11.186;2023-04-25T04:30:46;9.82;;;9.13;;
32228;SDS011;18717;48.034;11.186;2023-04-25T04:33:13;9.05;;;8.35;;
32228;SDS011;18717;48.034;11.186;2023-04-25T04:35:42;9.60;;;8.75;;
32228;SDS011;18717;48.034;11.186;2023-04-25T04:38:09;9.23;;;8.40;;
32228;SDS011;18717;48.034;11.186;2023-04-25T04:40:38;9.68;;;8.88;;
32228;SDS011;18717;48.034;11.186;2023-04-25T04:43:06;9.48;;;8.77;;
32228;SDS011;18717;48.034;11.186;2023-04-25T04:45:35;8.75;;;8.05;;
32228;SDS011;18717;48.034;11.186;2023-04-25T04:48:04;9.70;;;8.98;;
32228;SDS011;18717;48.034;11.186;2023-04-25T04:50:32;9.77;;;8.88;;
32228;SDS011;18717;48.034;11.186;2023-04-25T04:53:01;10.18;;;9.18;;
32228;SDS011;18717;48.034;11.186;2023-04-25T04:55:29;10.32;;;9.52;;
32228;SDS011;18717;48.034;11.186;2023-04-25T04:57:57;10.32;;;9.40;;
32228;SDS011;18717;48.034;11.186;2023-04-25T05:00:25;9.38;;;8.60;;
32228;SDS011;18717;48.034;11.186;2023-04-25T05:02:55;9.45;;;8.57;;
32228;SDS011;18717;48.034;11.186;2023-04-25T05:05:24;9.98;;;9.27;;
32228;SDS011;18717;48.034;11.186;2023-04-25T05:07:52;10.98;;;9.75;;
32228;SDS011;18717;48.034;11.186;2023-04-25T05:10:19;10.45;;;9.48;;
32228;SDS011;18717;48.034;11.186;2023-04-25T05:12:47;10.65;;;9.95;;
32228;SDS011;18717;48.034;11.186;2023-04-25T05:15:15;10.02;;;9.23;;
32228;SDS011;18717;48.034;11.186;2023-04-25T05:17:43;10.68;;;9.32;;
32228;SDS011;18717;48.034;11.186;2023-04-25T05:20:10;9.77;;;9.02;;
32228;SDS011;18717;48.034;11.186;2023-04-25T05:22:41;9.07;;;8.23;;
32228;SDS011;18717;48.034;11.186;2023-04-25T05:25:09;9.75;;;9.05;;
32228;SDS011;18717;48.034;11.186;2023-04-25T05:27:37;10.70;;;9.93;;
32228;SDS011;18717;48.034;11.186;2023-04-25T05:30:05;14.27;;;9.52;;
32228;SDS011;18717;48.034;11.186;2023-04-25T05:32:34;9.75;;;9.05;;
32228;SDS011;18717;48.034;11.186;2023-04-25T05:35:01;10.10;;;9.20;;
32228;SDS011;18717;48.034;11.186;2023-04-25T05:37:29;10.25;;;9.52;;
32228;SDS011;18717;48.034;11.186;2023-04-25T05:40:00;10.77;;;9.85;;
32228;SDS011;18717;48.034;11.186;2023-04-25T05:42:28;11.43;;;10.07;;
32228;SDS011;18717;48.034;11.186;2023-04-25T05:44:55;10.13;;;9.25;;
32228;SDS011;18717;48.034;11.186;2023-04-25T05:47:23;10.65;;;9.65;;
32228;SDS011;18717;48.034;11.186;2023-04-25T05:49:51;10.07;;;9.07;;
32228;SDS011;18717;48.034;11.186;2023-04-25T05:52:19;11.02;;;10.02;;
32228;SDS011;18717;48.034;11.186;2023-04-25T05:54:46;11.30;;;10.38;;
32228;SDS011;18717;48.034;11.186;2023-04-25T05:57:22;11.32;;;10.20;;
32228;SDS011;18717;48.034;11.186;2023-04-25T05:59:51;10.07;;;9.13;;
32228;SDS011;18717;48.034;11.186;2023-04-25T06:02:19;11.18;;;10.00;;
32228;SDS011;18717;48.034;11.186;2023-04-25T06:04:48;10.75;;;9.93;;
32228;SDS011;18717;48.034;11.186;2023-04-25T06:07:17;11.60;;;10.38;;
32228;SDS011;18717;48.034;11.186;2023-04-25T06:09:46;11.18;;;9.38;;
32228;SDS011;18717;48.034;11.186;2023-04-25T06:12:13;11.00;;;9.90;;
32228;SDS011;18717;48.034;11.186;2023-04-25T06:14:42;10.32;;;9.50;;
32228;SDS011;18717;48.034;11.186;2023-04-25T06:17:10;10.98;;;9.73;;
32228;SDS011;18717;48.034;11.186;2023-04-25T06:19:38;10.43;;;9.57;;
32228;SDS011;18717;48.034;11.186;2023-04-25T06:22:07;10.73;;;9.65;;
32228;SDS011;18717;48.034;11.186;2023-04-25T06:24:35;11.63;;;10.75;;
32228;SDS011;18717;48.034;11.186;2023-04-25T06:27:02;10.60;;;9.73;;
32228;SDS011;18717;48.034;11.186;2023-04-25T06:29:30;11.90;;;10.80;;
32228;SDS011;18717;48.034;11.186;2023-04-25T06:31:59;14.30;;;11.25;;
32228;SDS011;18717;48.034;11.186;2023-04-25T06:34:27;11.57;;;10.55;;
32228;SDS011;18717;48.034;11.186;2023-04-25T06:36:55;12.48;;;10.40;;
32228;SDS011;18717;48.034;11.186;2023-04-25T06:39:22;11.70;;;10.80;;
32228;SDS011;18717;48.034;11.186;2023-04-25T06:41:51;18.17;;;14.23;;
32228;SDS011;18717;48.034;11.186;2023-04-25T06:44:19;12.85;;;11.43;;
32228;SDS011;18717;48.034;11.186;2023-04-25T06:46:49;11.68;;;10.55;;
32228;SDS011;18717;48.034;11.186;2023-04-25T06:49:18;11.48;;;10.57;;
32228;SDS011;18717;48.034;11.186;2023-04-25T06:51:46;12.50;;;11.20;;
32228;SDS011;18717;48.034;11.186;2023-04-25T06:54:13;11.27;;;10.35;;
32228;SDS011;18717;48.034;11.186;2023-04-25T06:56:41;11.32;;;10.13;;
32228;SDS011;18717;48.034;11.186;2023-04-25T06:59:09;12.85;;;10.55;;
32228;SDS011;18717;48.034;11.186;2023-04-25T07:01:37;11.73;;;10.77;;
32228;SDS011;18717;48.034;11.186;2023-04-25T07:04:04;11.95;;;10.73;;
32228;SDS011;18717;48.034;11.186;2023-04-25T07:06:34;13.63;;;11.15;;
32228;SDS011;18717;48.034;11.186;2023-04-25T07:09:04;7.78;;;7.18;;
32228;SDS011;18717;48.034;11.186;2023-04-25T07:11:32;10.43;;;9.73;;
32228;SDS011;18717;48.034;11.186;2023-04-25T07:14:00;12.18;;;11.13;;
32228;SDS011;18717;48.034;11.186;2023-04-25T07:16:27;11.93;;;10.98;;
32228;SDS011;18717;48.034;11.186;2023-04-25T07:18:55;12.63;;;11.35;;
32228;SDS011;18717;48.034;11.186;2023-04-25T07:21:23;14.30;;;11.75;;
32228;SDS011;18717;48.034;11.186;2023-04-25T07:23:52;11.70;;;10.60;;
32228;SDS011;18717;48.034;11.186;2023-04-25T07:26:20;12.57;;;11.15;;
32228;SDS011;18717;48.034;11.186;2023-04-25T07:28:48;11.93;;;10.98;;
32228;SDS011;18717;48.034;11.186;2023-04-25T07:31:17;12.20;;;11.27;;
32228;SDS011;18717;48.034;11.186;2023-04-25T07:33:45;11.98;;;10.65;;
32228;SDS011;18717;48.034;11.186;2023-04-25T07:36:13;14.60;;;10.82;;
32228;SDS011;18717;48.034;11.186;2023-04-25T07:38:41;15.10;;;11.30;;
32228;SDS011;18717;48.034;11.186;2023-04-25T07:41:10;11.55;;;10.73;;
32228;SDS011;18717;48.034;11.186;2023-04-25T07:43:38;12.00;;;10.98;;
32228;SDS011;18717;48.034;11.186;2023-04-25T07:46:05;12.52;;;11.23;;
32228;SDS011;18717;48.034;11.186;2023-04-25T07:48:33;11.55;;;10.68;;
32228;SDS011;18717;48.034;11.186;2023-04-25T07:51:01;11.52;;;10.50;;
32228;SDS011;18717;48.034;11.186;2023-04-25T07:53:30;10.60;;;9.60;;
32228;SDS011;18717;48.034;11.186;2023-04-25T07:55:58;10.85;;;10.05;;
32228;SDS011;18717;48.034;11.186;2023-04-25T07:58:27;13.27;;;11.57;;
32228;SDS011;18717;48.034;11.186;2023-04-25T08:00:55;11.43;;;10.48;;
32228;SDS011;18717;48.034;11.186;2023-04-25T08:03:23;16.92;;;10.63;;
32228;SDS011;18717;48.034;11.186;2023-04-25T08:05:51;11.13;;;10.25;;
32228;SDS011;18717;48.034;11.186;2023-04-25T08:08:19;11.82;;;9.73;;
32228;SDS011;18717;48.034;11.186;2023-04-25T08:10:46;10.32;;;9.68;;
32228;SDS011;18717;48.034;11.186;2023-04-25T08:13:14;11.07;;;10.35;;
32228;SDS011;18717;48.034;11.186;2023-04-25T08:15:43;10.80;;;10.07;;
32228;SDS011;18717;48.034;11.186;2023-04-25T08:18:11;10.40;;;9.80;;
32228;SDS011;18717;48.034;11.186;2023-04-25T08:20:42;10.80;;;9.95;;
32228;SDS011;18717;48.034;11.186;2023-04-25T08:23:10;11.50;;;10.80;;
32228;SDS011;18717;48.034;11.186;2023-04-25T08:25:38;11.15;;;10.45;;
32228;SDS011;18717;48.034;11.186;2023-04-25T08:28:06;14.48;;;12.80;;
32228;SDS011;18717;48.034;11.186;2023-04-25T08:30:33;13.27;;;10.93;;
32228;SDS011;18717;48.034;11.186;2023-04-25T08:33:02;11.25;;;10.55;;
32228;SDS011;18717;48.034;11.186;2023-04-25T08:35:30;11.25;;;10.45;;
32228;SDS011;18717;48.034;11.186;2023-04-25T08:37:59;11.40;;;10.32;;
32228;SDS011;18717;48.034;11.186;2023-04-25T08:40:27;11.23;;;10.48;;
32228;SDS011;18717;48.034;11.186;2023-04-25T08:42:56;11.70;;;10.70;;
32228;SDS011;18717;48.034;11.186;2023-04-25T08:45:25;13.75;;;12.45;;
32228;SDS011;18717;48.034;11.186;2023-04-25T08:47:54;11.85;;;10.65;;
32228;SDS011;18717;48.034;11.186;2023-04-25T08:50:25;10.02;;;9.52;;
32228;SDS011;18717;48.034;11.186;2023-04-25T08:52:53;10.75;;;10.02;;
32228;SDS011;18717;48.034;11.186;2023-04-25T08:55:21;11.02;;;10.25;;
32228;SDS011;18717;48.034;11.186;2023-04-25T08:57:50;10.75;;;10.15;;
32228;SDS011;18717;48.034;11.186;2023-04-25T09:00:18;10.55;;;9.80;;
32228;SDS011;18717;48.034;11.186;2023-04-25T09:02:46;10.73;;;9.98;;
32228;SDS011;18717;48.034;11.186;2023-04-25T09:05:14;11.55;;;10.63;;
32228;SDS011;18717;48.034;11.186;2023-04-25T09:07:45;10.88;;;10.25;;
32228;SDS011;18717;48.034;11.186;2023-04-25T09:12:43;11.18;;;10.45;;
32228;SDS011;18717;48.034;11.186;2023-04-25T09:15:11;11.40;;;10.70;;
32228;SDS011;18717;48.034;11.186;2023-04-25T09:17:46;10.57;;;9.68;;
32228;SDS011;18717;48.034;11.186;2023-04-25T09:20:22;11.63;;;10.75;;
32228;SDS011;18717;48.034;11.186;2023-04-25T09:23:02;11.85;;;11.05;;
32228;SDS011;18717;48.034;11.186;2023-04-25T09:25:34;11.00;;;10.20;;
32228;SDS011;18717;48.034;11.186;2023-04-25T09:28:03;11.75;;;10.95;;
32228;SDS011;18717;48.034;11.186;2023-04-25T09:30:32;11.38;;;10.48;;
32228;SDS011;18717;48.034;11.186;2023-04-25T09:33:04;10.80;;;10.20;;
32228;SDS011;18717;48.034;11.186;2023-04-25T09:35:36;11.13;;;10.30;;
32228;SDS011;18717;48.034;11.186;2023-04-25T09:38:10;10.93;;;10.38;;
32228;SDS011;18717;48.034;11.186;2023-04-25T09:40:39;10.13;;;9.60;;
32228;SDS011;18717;48.034;11.186;2023-04-25T09:43:12;10.98;;;10.13;;
32228;SDS011;18717;48.034;11.186;2023-04-25T09:45:46;10.95;;;10.23;;
32228;SDS011;18717;48.034;11.186;2023-04-25T09:48:16;10.65;;;10.15;;
32228;SDS011;18717;48.034;11.186;2023-04-25T09:50:45;11.02;;;10.20;;
32228;SDS011;18717;48.034;11.186;2023-04-25T09:53:15;10.60;;;9.70;;
32228;SDS011;18717;48.034;11.186;2023-04-25T09:55:42;11.25;;;10.50;;
32228;SDS011;18717;48.034;11.186;2023-04-25T09:58:11;11.38;;;10.40;;
32228;SDS011;18717;48.034;11.186;2023-04-25T10:00:39;10.68;;;9.85;;
32228;SDS011;18717;48.034;11.186;2023-04-25T10:03:08;10.55;;;9.85;;
32228;SDS011;18717;48.034;11.186;2023-04-25T10:05:36;10.88;;;10.27;;
32228;SDS011;18717;48.034;11.186;2023-04-25T10:08:04;10.65;;;9.73;;
32228;SDS011;18717;48.034;11.186;2023-04-25T10:10:34;10.57;;;9.98;;
32228;SDS011;18717;48.034;11.186;2023-04-25T10:13:04;10.27;;;9.68;;
32228;SDS011;18717;48.034;11.186;2023-04-25T10:15:33;10.18;;;9.52;;
32228;SDS011;18717;48.034;11.186;2023-04-25T10:18:05;11.10;;;10.00;;
32228;SDS011;18717;48.034;11.186;2023-04-25T10:20:33;10.10;;;9.48;;
32228;SDS011;18717;48.034;11.186;2023-04-25T10:23:03;10.70;;;9.98;;
32228;SDS011;18717;48.034;11.186;2023-04-25T10:25:37;11.35;;;10.27;;
32228;SDS011;18717;48.034;11.186;2023-04-25T10:28:04;10.88;;;10.13;;
32228;SDS011;18717;48.034;11.186;2023-04-25T10:30:32;9.75;;;9.25;;
32228;SDS011;18717;48.034;11.186;2023-04-25T10:33:00;10.13;;;9.27;;
32228;SDS011;18717;48.034;11.186;2023-04-25T10:35:28;10.57;;;9.77;;
32228;SDS011;18717;48.034;11.186;2023-04-25T10:37:58;10.55;;;9.75;;
32228;SDS011;18717;48.034;11.186;2023-04-25T10:40:26;11.07;;;10.30;;
32228;SDS011;18717;48.034;11.186;2023-04-25T10:42:56;10.38;;;9.68;;
32228;SDS011;18717;48.034;11.186;2023-04-25T10:46:03;10.45;;;9.57;;
32228;SDS011;18717;48.034;11.186;2023-04-25T10:48:43;10.93;;;10.13;;
32228;SDS011;18717;48.034;11.186;2023-04-25T10:51:17;10.70;;;10.00;;
32228;SDS011;18717;48.034;11.186;2023-04-25T10:53:46;10.27;;;9.25;;
32228;SDS011;18717;48.034;11.186;2023-04-25T10:56:18;10.88;;;10.15;;
32228;SDS011;18717;48.034;11.186;2023-04-25T10:58:48;9.50;;;9.00;;
32228;SDS011;18717;48.034;11.186;2023-04-25T11:01:19;10.50;;;9.82;;
32228;SDS011;18717;48.034;11.186;2023-04-25T11:03:47;10.25;;;9.23;;
32228;SDS011;18717;48.034;11.186;2023-04-25T11:06:20;9.00;;;8.50;;
32228;SDS011;18717;48.034;11.186;2023-04-25T11:08:50;8.32;;;7.93;;
32228;SDS011;18717;48.034;11.186;2023-04-25T11:11:19;8.95;;;8.38;;
32228;SDS011;18717;48.034;11.186;2023-04-25T11:13:51;9.13;;;8.63;;
32228;SDS011;18717;48.034;11.186;2023-04-25T11:16:19;9.07;;;8.38;;
32228;SDS011;18717;48.034;11.186;2023-04-25T11:18:53;8.32;;;7.82;;
32228;SDS011;18717;48.034;11.186;2023-04-25T11:21:21;8.40;;;8.00;;
32228;SDS011;18717;48.034;11.186;2023-04-25T11:23:48;8.13;;;7.72;;
32228;SDS011;18717;48.034;11.186;2023-04-25T11:26:16;9.05;;;8.23;;
32228;SDS011;18717;48.034;11.186;2023-04-25T11:28:46;8.15;;;7.75;;
32228;SDS011;18717;48.034;11.186;2023-04-25T11:31:15;8.48;;;8.05;;
32228;SDS011;18717;48.034;11.186;2023-04-25T11:33:43;8.10;;;7.60;;
32228;SDS011;18717;48.034;11.186;2023-04-25T11:36:11;8.45;;;8.05;;
32228;SDS011;18717;48.034;11.186;2023-04-25T11:38:39;8.88;;;8.27;;
32228;SDS011;18717;48.034;11.186;2023-04-25T11:41:07;7.68;;;7.30;;
32228;SDS011;18717;48.034;11.186;2023-04-25T11:43:35;9.35;;;8.63;;
32228;SDS011;18717;48.034;11.186;2023-04-25T11:46:06;8.85;;;8.35;;
32228;SDS011;18717;48.034;11.186;2023-04-25T11:48:38;9.17;;;8.67;;
32228;SDS011;18717;48.034;11.186;2023-04-25T11:51:06;8.75;;;8.18;;
32228;SDS011;18717;48.034;11.186;2023-04-25T11:53:34;8.65;;;8.23;;
32228;SDS011;18717;48.034;11.186;2023-04-25T11:56:02;8.48;;;8.07;;
32228;SDS011;18717;48.034;11.186;2023-04-25T12:01:29;8.80;;;8.40;;
32228;SDS011;18717;48.034;11.186;2023-04-25T12:04:11;7.80;;;7.43;;
32228;SDS011;18717;48.034;11.186;2023-04-25T12:06:40;8.88;;;8.48;;
32228;SDS011;18717;48.034;11.186;2023-04-25T12:09:10;8.80;;;8.27;;
32228;SDS011;18717;48.034;11.186;2023-04-25T12:11:42;8.65;;;8.25;;
32228;SDS011;18717;48.034;11.186;2023-04-25T12:14:10;8.65;;;8.15;;
32228;SDS011;18717;48.034;11.186;2023-04-25T12:16:41;9.00;;;8.40;;
32228;SDS011;18717;48.034;11.186;2023-04-25T12:19:13;8.90;;;8.45;;
32228;SDS011;18717;48.034;11.186;2023-04-25T12:21:41;7.80;;;7.50;;
32228;SDS011;18717;48.034;11.186;2023-04-25T12:24:23;7.35;;;7.05;;
32228;SDS011;18717;48.034;11.186;2023-04-25T12:26:58;7.95;;;7.65;;
32228;SDS011;18717;48.034;11.186;2023-04-25T12:29:28;8.23;;;7.72;;
32228;SDS011;18717;48.034;11.186;2023-04-25T12:32:03;8.25;;;7.57;;
32228;SDS011;18717;48.034;11.186;2023-04-25T12:34:33;8.43;;;8.02;;
32228;SDS011;18717;48.034;11.186;2023-04-25T12:37:02;7.57;;;7.28;;
32228;SDS011;18717;48.034;11.186;2023-04-25T12:39:30;7.70;;;7.40;;
32228;SDS011;18717;48.034;11.186;2023-04-25T12:41:57;8.05;;;7.68;;
32228;SDS011;18717;48.034;11.186;2023-04-25T12:44:25;8.07;;;7.68;;
32228;SDS011;18717;48.034;11.186;2023-04-25T12:46:53;8.05;;;7.65;;
32228;SDS011;18717;48.034;11.186;2023-04-25T12:49:21;7.80;;;7.40;;
32228;SDS011;18717;48.034;11.186;2023-04-25T12:51:51;7.63;;;7.32;;
32228;SDS011;18717;48.034;11.186;2023-04-25T12:54:18;8.18;;;7.60;;
32228;SDS011;18717;48.034;11.186;2023-04-25T12:56:46;7.43;;;7.13;;
32228;SDS011;18717;48.034;11.186;2023-04-25T12:59:14;8.75;;;8.25;;
32228;SDS011;18717;48.034;11.186;2023-04-25T13:01:42;7.88;;;7.57;;
32228;SDS011;18717;48.034;11.186;2023-04-25T13:04:10;9.80;;;9.20;;
32228;SDS011;18717;48.034;11.186;2023-04-25T13:06:38;9.57;;;9.02;;
32228;SDS011;18717;48.034;11.186;2023-04-25T13:09:07;8.70;;;8.20;;
32228;SDS011;18717;48.034;11.186;2023-04-25T13:11:35;9.23;;;8.73;;
32228;SDS011;18717;48.034;11.186;2023-04-25T13:14:03;9.73;;;9.13;;
32228;SDS011;18717;48.034;11.186;2023-04-25T13:16:31;13.60;;;12.18;;
32228;SDS011;18717;48.034;11.186;2023-04-25T13:18:59;9.65;;;9.05;;
32228;SDS011;18717;48.034;11.186;2023-04-25T13:21:29;8.93;;;8.45;;
32228;SDS011;18717;48.034;11.186;2023-04-25T13:23:58;9.10;;;8.60;;
32228;SDS011;18717;48.034;11.186;2023-04-25T13:26:27;8.30;;;7.90;;
32228;SDS011;18717;48.034;11.186;2023-04-25T13:28:54;12.48;;;11.38;;
32228;SDS011;18717;48.034;11.186;2023-04-25T13:31:23;11.88;;;10.73;;
32228;SDS011;18717;48.034;11.186;2023-04-25T13:33:51;10.05;;;9.32;;
32228;SDS011;18717;48.034;11.186;2023-04-25T13:36:19;12.55;;;11.35;;
32228;SDS011;18717;48.034;11.186;2023-04-25T13:38:47;10.02;;;9.32;;
32228;SDS011;18717;48.034;11.186;2023-04-25T13:41:15;8.02;;;7.63;;
32228;SDS011;18717;48.034;11.186;2023-04-25T13:43:46;9.27;;;8.77;;
32228;SDS011;18717;48.034;11.186;2023-04-25T13:46:15;9.05;;;8.20;;
32228;SDS011;18717;48.034;11.186;2023-04-25T13:48:45;9.15;;;8.65;;
32228;SDS011;18717;48.034;11.186;2023-04-25T13:51:15;8.52;;;7.88;;
32228;SDS011;18717;48.034;11.186;2023-04-25T13:53:43;8.82;;;8.32;;
32228;SDS011;18717;48.034;11.186;2023-04-25T13:56:11;8.20;;;7.80;;
32228;SDS011;18717;48.034;11.186;2023-04-25T13:58:39;7.85;;;7.55;;
32228;SDS011;18717;48.034;11.186;2023-04-25T14:01:08;8.15;;;7.80;;
32228;SDS011;18717;48.034;11.186;2023-04-25T14:03:36;8.65;;;8.25;;
32228;SDS011;18717;48.034;11.186;2023-04-25T14:06:04;8.25;;;7.85;;
32228;SDS011;18717;48.034;11.186;2023-04-25T14:08:32;8.55;;;8.15;;
32228;SDS011;18717;48.034;11.186;2023-04-25T14:10:59;7.97;;;7.57;;
32228;SDS011;18717;48.034;11.186;2023-04-25T14:13:27;8.25;;;7.85;;
32228;SDS011;18717;48.034;11.186;2023-04-25T14:15:55;7.38;;;7.07;;
32228;SDS011;18717;48.034;11.186;2023-04-25T14:18:24;8.07;;;7.78;;
32228;SDS011;18717;48.034;11.186;2023-04-25T14:20:52;8.93;;;8.43;;
32228;SDS011;18717;48.034;11.186;2023-04-25T14:23:19;7.45;;;7.15;;
32228;SDS011;18717;48.034;11.186;2023-04-25T14:25:47;7.78;;;7.47;;
32228;SDS011;18717;48.034;11.186;2023-04-25T14:28:15;7.57;;;7.28;;
32228;SDS011;18717;48.034;11.186;2023-04-25T14:30:43;8.73;;;8.10;;
32228;SDS011;18717;48.034;11.186;2023-04-25T14:33:10;8.73;;;8.23;;
32228;SDS011;18717;48.034;11.186;2023-04-25T14:35:41;7.80;;;7.50;;
32228;SDS011;18717;48.034;11.186;2023-04-25T14:38:08;8.00;;;7.40;;
32228;SDS011;18717;48.034;11.186;2023-04-25T14:40:36;7.57;;;7.28;;